sensor_id;sensor_type;location;lat;lon;timestamp;temperature;humidity
25906;DHT22;13713;52.552;13.204;2022-12-18T00:01:58;10.60;58.70
25906;DHT22;13713;52.552;13.204;2022-12-18T00:04:27;10.70;58.70
25906;DHT22;13713;52.552;13.204;2022-12-18T00:06:53;10.70;58.70
25906;DHT22;13713;52.552;13.204;2022-12-18T00:09:20;10.70;58.70
25906;DHT22;13713;52.552;13.204;2022-12-18T00:11:45;10.60;58.80
25906;DHT22;13713;52.552;13.204;2022-12-18T00:14:12;10.70;58.70
25906;DHT22;13713;52.552;13.204;2022-12-18T00:16:39;10.60;58.60
25906;DHT22;13713;52.552;13.204;2022-12-18T00:19:05;10.70;58.70
25906;DHT22;13713;52.552;13.204;2022-12-18T00:21:32;10.60;58.70
25906;DHT22;13713;52.552;13.204;2022-12-18T00:23:59;10.60;58.60
25906;DHT22;13713;52.552;13.204;2022-12-18T00:26:27;10.60;58.70
25906;DHT22;13713;52.552;13.204;2022-12-18T00:29:02;10.60;58.70
25906;DHT22;13713;52.552;13.204;2022-12-18T00:31:29;10.60;58.60
25906;DHT22;13713;52.552;13.204;2022-12-18T00:33:55;10.60;58.70
25906;DHT22;13713;52.552;13.204;2022-12-18T00:36:27;10.60;58.70
25906;DHT22;13713;52.552;13.204;2022-12-18T00:38:54;10.60;58.70
25906;DHT22;13713;52.552;13.204;2022-12-18T00:41:20;10.60;58.70
25906;DHT22;13713;52.552;13.204;2022-12-18T00:44:06;10.60;58.60
25906;DHT22;13713;52.552;13.204;2022-12-18T00:46:33;10.60;58.60
25906;DHT22;13713;52.552;13.204;2022-12-18T00:48:59;10.60;58.60
25906;DHT22;13713;52.552;13.204;2022-12-18T00:51:25;10.60;58.60
25906;DHT22;13713;52.552;13.204;2022-12-18T00:53:51;10.60;58.50
25906;DHT22;13713;52.552;13.204;2022-12-18T00:56:16;10.60;58.50
25906;DHT22;13713;52.552;13.204;2022-12-18T00:58:42;10.60;58.50
25906;DHT22;13713;52.552;13.204;2022-12-18T01:01:07;10.60;58.50
25906;DHT22;13713;52.552;13.204;2022-12-18T01:03:34;10.60;58.60
25906;DHT22;13713;52.552;13.204;2022-12-18T01:06:04;10.60;58.50
25906;DHT22;13713;52.552;13.204;2022-12-18T01:08:30;10.60;58.50
25906;DHT22;13713;52.552;13.204;2022-12-18T01:10:56;10.60;58.40
25906;DHT22;13713;52.552;13.204;2022-12-18T01:13:21;10.60;58.40
25906;DHT22;13713;52.552;13.204;2022-12-18T01:15:49;10.60;58.50
25906;DHT22;13713;52.552;13.204;2022-12-18T01:18:16;10.50;58.50
25906;DHT22;13713;52.552;13.204;2022-12-18T01:20:41;10.60;58.50
25906;DHT22;13713;52.552;13.204;2022-12-18T01:23:07;10.50;58.40
25906;DHT22;13713;52.552;13.204;2022-12-18T01:25:35;10.60;58.40
25906;DHT22;13713;52.552;13.204;2022-12-18T01:28:01;10.60;58.50
25906;DHT22;13713;52.552;13.204;2022-12-18T01:30:27;10.50;58.40
25906;DHT22;13713;52.552;13.204;2022-12-18T01:32:53;10.50;58.40
25906;DHT22;13713;52.552;13.204;2022-12-18T01:35:19;10.60;58.60
25906;DHT22;13713;52.552;13.204;2022-12-18T01:37:45;10.50;58.50
25906;DHT22;13713;52.552;13.204;2022-12-18T01:40:12;10.50;58.40
25906;DHT22;13713;52.552;13.204;2022-12-18T01:42:38;10.50;58.30
25906;DHT22;13713;52.552;13.204;2022-12-18T01:45:26;10.50;58.40
25906;DHT22;13713;52.552;13.204;2022-12-18T01:48:03;10.50;58.40
25906;DHT22;13713;52.552;13.204;2022-12-18T01:50:37;10.50;58.40
25906;DHT22;13713;52.552;13.204;2022-12-18T01:53:15;10.50;58.40
25906;DHT22;13713;52.552;13.204;2022-12-18T01:55:50;10.50;58.40
25906;DHT22;13713;52.552;13.204;2022-12-18T01:58:17;10.50;58.40
25906;DHT22;13713;52.552;13.204;2022-12-18T02:00:44;10.50;58.40
25906;DHT22;13713;52.552;13.204;2022-12-18T02:03:09;10.50;58.50
25906;DHT22;13713;52.552;13.204;2022-12-18T02:08:36;10.50;58.40
25906;DHT22;13713;52.552;13.204;2022-12-18T02:11:17;10.50;58.40
25906;DHT22;13713;52.552;13.204;2022-12-18T02:19:27;10.50;58.40
25906;DHT22;13713;52.552;13.204;2022-12-18T02:22:12;10.50;58.40
25906;DHT22;13713;52.552;13.204;2022-12-18T02:27:30;10.50;58.40
25906;DHT22;13713;52.552;13.204;2022-12-18T02:29:59;10.50;58.40
25906;DHT22;13713;52.552;13.204;2022-12-18T02:32:31;10.50;58.50
25906;DHT22;13713;52.552;13.204;2022-12-18T02:34:59;10.50;58.40
25906;DHT22;13713;52.552;13.204;2022-12-18T02:37:28;10.40;58.40
25906;DHT22;13713;52.552;13.204;2022-12-18T02:39:58;10.50;58.40
25906;DHT22;13713;52.552;13.204;2022-12-18T02:42:24;10.50;58.30
25906;DHT22;13713;52.552;13.204;2022-12-18T02:44:51;10.50;58.40
25906;DHT22;13713;52.552;13.204;2022-12-18T02:47:24;10.40;58.20
25906;DHT22;13713;52.552;13.204;2022-12-18T02:58:26;10.40;58.30
25906;DHT22;13713;52.552;13.204;2022-12-18T03:01:19;10.50;58.30
25906;DHT22;13713;52.552;13.204;2022-12-18T03:03:55;10.40;58.20
25906;DHT22;13713;52.552;13.204;2022-12-18T03:06:30;10.40;58.10
25906;DHT22;13713;52.552;13.204;2022-12-18T03:09:20;10.40;58.20
25906;DHT22;13713;52.552;13.204;2022-12-18T03:11:55;10.40;58.20
25906;DHT22;13713;52.552;13.204;2022-12-18T03:14:40;10.40;58.20
25906;DHT22;13713;52.552;13.204;2022-12-18T03:17:14;10.40;58.20
25906;DHT22;13713;52.552;13.204;2022-12-18T03:19:42;10.40;58.20
25906;DHT22;13713;52.552;13.204;2022-12-18T03:22:10;10.40;58.20
25906;DHT22;13713;52.552;13.204;2022-12-18T03:24:45;10.40;58.20
25906;DHT22;13713;52.552;13.204;2022-12-18T03:27:15;10.40;58.30
25906;DHT22;13713;52.552;13.204;2022-12-18T03:29:53;10.40;58.30
25906;DHT22;13713;52.552;13.204;2022-12-18T03:32:26;10.50;58.30
25906;DHT22;13713;52.552;13.204;2022-12-18T03:34:55;10.40;58.20
25906;DHT22;13713;52.552;13.204;2022-12-18T03:37:24;10.40;58.10
25906;DHT22;13713;52.552;13.204;2022-12-18T03:39:51;10.40;58.10
25906;DHT22;13713;52.552;13.204;2022-12-18T03:45:18;10.40;58.20
25906;DHT22;13713;52.552;13.204;2022-12-18T03:48:02;10.40;58.10
25906;DHT22;13713;52.552;13.204;2022-12-18T03:53:25;10.40;58.20
25906;DHT22;13713;52.552;13.204;2022-12-18T03:55:54;10.40;58.00
25906;DHT22;13713;52.552;13.204;2022-12-18T03:58:24;10.30;58.10
25906;DHT22;13713;52.552;13.204;2022-12-18T04:00:59;10.40;58.10
25906;DHT22;13713;52.552;13.204;2022-12-18T04:03:28;10.40;58.00
25906;DHT22;13713;52.552;13.204;2022-12-18T04:05:57;10.40;58.00
25906;DHT22;13713;52.552;13.204;2022-12-18T04:08:26;10.30;57.90
25906;DHT22;13713;52.552;13.204;2022-12-18T04:11:02;10.40;58.00
25906;DHT22;13713;52.552;13.204;2022-12-18T04:13:31;10.40;58.00
25906;DHT22;13713;52.552;13.204;2022-12-18T04:15:59;10.30;58.00
25906;DHT22;13713;52.552;13.204;2022-12-18T04:18:24;10.30;57.90
25906;DHT22;13713;52.552;13.204;2022-12-18T04:20:50;10.40;58.10
25906;DHT22;13713;52.552;13.204;2022-12-18T04:23:17;10.30;58.00
25906;DHT22;13713;52.552;13.204;2022-12-18T04:25:43;10.40;58.00
25906;DHT22;13713;52.552;13.204;2022-12-18T04:28:13;10.30;58.00
25906;DHT22;13713;52.552;13.204;2022-12-18T04:30:39;10.30;57.90
25906;DHT22;13713;52.552;13.204;2022-12-18T04:33:12;10.30;57.90
25906;DHT22;13713;52.552;13.204;2022-12-18T04:35:44;10.30;57.90
25906;DHT22;13713;52.552;13.204;2022-12-18T04:38:11;10.30;57.90
25906;DHT22;13713;52.552;13.204;2022-12-18T04:40:38;10.30;57.90
25906;DHT22;13713;52.552;13.204;2022-12-18T04:43:10;10.30;57.90
25906;DHT22;13713;52.552;13.204;2022-12-18T04:45:36;10.30;57.90
25906;DHT22;13713;52.552;13.204;2022-12-18T04:48:02;10.30;57.90
25906;DHT22;13713;52.552;13.204;2022-12-18T04:50:29;10.30;57.90
25906;DHT22;13713;52.552;13.204;2022-12-18T04:52:55;10.30;57.80
25906;DHT22;13713;52.552;13.204;2022-12-18T04:55:24;10.30;57.80
25906;DHT22;13713;52.552;13.204;2022-12-18T04:57:49;10.30;57.70
25906;DHT22;13713;52.552;13.204;2022-12-18T05:00:15;10.30;57.70
25906;DHT22;13713;52.552;13.204;2022-12-18T05:02:41;10.30;57.70
25906;DHT22;13713;52.552;13.204;2022-12-18T05:05:07;10.30;57.70
25906;DHT22;13713;52.552;13.204;2022-12-18T05:07:33;10.30;57.60
25906;DHT22;13713;52.552;13.204;2022-12-18T05:09:59;10.30;57.60
25906;DHT22;13713;52.552;13.204;2022-12-18T05:12:25;10.30;57.70
25906;DHT22;13713;52.552;13.204;2022-12-18T05:14:50;10.30;57.70
25906;DHT22;13713;52.552;13.204;2022-12-18T05:17:16;10.30;57.60
25906;DHT22;13713;52.552;13.204;2022-12-18T05:19:42;10.30;57.60
25906;DHT22;13713;52.552;13.204;2022-12-18T05:22:08;10.30;57.60
25906;DHT22;13713;52.552;13.204;2022-12-18T05:24:34;10.20;57.50
25906;DHT22;13713;52.552;13.204;2022-12-18T05:26:59;10.30;57.70
25906;DHT22;13713;52.552;13.204;2022-12-18T05:29:25;10.20;57.60
25906;DHT22;13713;52.552;13.204;2022-12-18T05:31:51;10.30;57.50
25906;DHT22;13713;52.552;13.204;2022-12-18T05:34:16;10.20;58.10
25906;DHT22;13713;52.552;13.204;2022-12-18T05:36:42;10.30;57.60
25906;DHT22;13713;52.552;13.204;2022-12-18T05:39:08;10.20;57.50
25906;DHT22;13713;52.552;13.204;2022-12-18T05:41:34;10.20;57.40
25906;DHT22;13713;52.552;13.204;2022-12-18T05:44:00;10.20;57.50
25906;DHT22;13713;52.552;13.204;2022-12-18T05:46:26;10.20;57.50
25906;DHT22;13713;52.552;13.204;2022-12-18T05:48:52;10.20;57.50
25906;DHT22;13713;52.552;13.204;2022-12-18T05:51:20;10.20;57.50
25906;DHT22;13713;52.552;13.204;2022-12-18T05:53:46;10.20;57.50
25906;DHT22;13713;52.552;13.204;2022-12-18T05:56:19;10.20;57.40
25906;DHT22;13713;52.552;13.204;2022-12-18T05:58:46;10.20;57.40
25906;DHT22;13713;52.552;13.204;2022-12-18T06:01:18;10.20;57.50
25906;DHT22;13713;52.552;13.204;2022-12-18T06:03:44;10.20;57.50
25906;DHT22;13713;52.552;13.204;2022-12-18T06:06:18;10.20;58.20
25906;DHT22;13713;52.552;13.204;2022-12-18T06:08:44;10.20;57.50
25906;DHT22;13713;52.552;13.204;2022-12-18T06:11:10;10.20;57.50
25906;DHT22;13713;52.552;13.204;2022-12-18T06:13:36;10.20;57.50
25906;DHT22;13713;52.552;13.204;2022-12-18T06:16:06;10.20;57.50
25906;DHT22;13713;52.552;13.204;2022-12-18T06:18:32;10.20;57.40
25906;DHT22;13713;52.552;13.204;2022-12-18T06:20:59;10.20;57.50
25906;DHT22;13713;52.552;13.204;2022-12-18T06:23:25;10.20;57.50
25906;DHT22;13713;52.552;13.204;2022-12-18T06:25:51;10.20;57.50
25906;DHT22;13713;52.552;13.204;2022-12-18T06:28:16;10.20;57.40
25906;DHT22;13713;52.552;13.204;2022-12-18T06:30:46;10.20;57.50
25906;DHT22;13713;52.552;13.204;2022-12-18T06:33:12;10.20;58.00
25906;DHT22;13713;52.552;13.204;2022-12-18T06:35:38;10.20;57.30
25906;DHT22;13713;52.552;13.204;2022-12-18T06:38:03;10.20;57.20
25906;DHT22;13713;52.552;13.204;2022-12-18T06:40:29;10.10;57.20
25906;DHT22;13713;52.552;13.204;2022-12-18T06:42:55;10.20;57.10
25906;DHT22;13713;52.552;13.204;2022-12-18T06:45:21;10.20;57.20
25906;DHT22;13713;52.552;13.204;2022-12-18T06:47:47;10.20;57.20
25906;DHT22;13713;52.552;13.204;2022-12-18T06:50:13;10.20;57.20
25906;DHT22;13713;52.552;13.204;2022-12-18T06:52:39;10.10;57.20
25906;DHT22;13713;52.552;13.204;2022-12-18T06:55:06;10.20;57.20
25906;DHT22;13713;52.552;13.204;2022-12-18T06:57:33;10.20;57.20
25906;DHT22;13713;52.552;13.204;2022-12-18T06:59:59;10.20;57.30
25906;DHT22;13713;52.552;13.204;2022-12-18T07:02:25;10.10;57.40
25906;DHT22;13713;52.552;13.204;2022-12-18T07:04:51;10.20;57.50
25906;DHT22;13713;52.552;13.204;2022-12-18T07:07:16;10.20;57.50
25906;DHT22;13713;52.552;13.204;2022-12-18T07:09:42;10.20;57.60
25906;DHT22;13713;52.552;13.204;2022-12-18T07:12:08;10.10;57.20
25906;DHT22;13713;52.552;13.204;2022-12-18T07:14:33;10.20;57.20
25906;DHT22;13713;52.552;13.204;2022-12-18T07:16:59;10.00;57.20
25906;DHT22;13713;52.552;13.204;2022-12-18T07:19:25;10.10;57.20
25906;DHT22;13713;52.552;13.204;2022-12-18T07:21:51;10.40;57.50
25906;DHT22;13713;52.552;13.204;2022-12-18T07:24:17;10.10;57.20
25906;DHT22;13713;52.552;13.204;2022-12-18T07:26:45;10.10;57.10
25906;DHT22;13713;52.552;13.204;2022-12-18T07:29:10;10.10;57.10
25906;DHT22;13713;52.552;13.204;2022-12-18T07:31:36;10.10;57.20
25906;DHT22;13713;52.552;13.204;2022-12-18T07:34:01;10.10;57.20
25906;DHT22;13713;52.552;13.204;2022-12-18T07:36:27;10.10;57.30
25906;DHT22;13713;52.552;13.204;2022-12-18T07:38:53;10.10;57.10
25906;DHT22;13713;52.552;13.204;2022-12-18T07:41:20;10.20;57.30
25906;DHT22;13713;52.552;13.204;2022-12-18T07:43:46;10.10;57.30
25906;DHT22;13713;52.552;13.204;2022-12-18T07:46:12;10.10;57.30
25906;DHT22;13713;52.552;13.204;2022-12-18T07:48:45;10.10;57.20
25906;DHT22;13713;52.552;13.204;2022-12-18T07:51:10;10.10;57.10
25906;DHT22;13713;52.552;13.204;2022-12-18T07:53:36;10.10;57.00
25906;DHT22;13713;52.552;13.204;2022-12-18T07:56:10;10.10;57.10
25906;DHT22;13713;52.552;13.204;2022-12-18T07:58:36;10.10;57.00
25906;DHT22;13713;52.552;13.204;2022-12-18T08:01:12;10.10;57.00
25906;DHT22;13713;52.552;13.204;2022-12-18T08:03:39;10.10;57.10
25906;DHT22;13713;52.552;13.204;2022-12-18T08:06:07;10.10;57.00
25906;DHT22;13713;52.552;13.204;2022-12-18T08:08:34;10.00;57.00
25906;DHT22;13713;52.552;13.204;2022-12-18T08:11:01;10.10;56.90
25906;DHT22;13713;52.552;13.204;2022-12-18T08:13:27;10.00;57.00
25906;DHT22;13713;52.552;13.204;2022-12-18T08:16:01;10.10;56.90
25906;DHT22;13713;52.552;13.204;2022-12-18T08:18:27;10.10;57.00
25906;DHT22;13713;52.552;13.204;2022-12-18T08:20:54;10.10;57.00
25906;DHT22;13713;52.552;13.204;2022-12-18T08:23:19;10.10;57.00
25906;DHT22;13713;52.552;13.204;2022-12-18T08:25:45;10.10;57.00
25906;DHT22;13713;52.552;13.204;2022-12-18T08:28:11;10.00;56.90
25906;DHT22;13713;52.552;13.204;2022-12-18T08:30:37;10.20;57.00
25906;DHT22;13713;52.552;13.204;2022-12-18T08:33:04;10.10;56.90
25906;DHT22;13713;52.552;13.204;2022-12-18T08:35:29;10.00;57.00
25906;DHT22;13713;52.552;13.204;2022-12-18T08:37:55;10.00;56.90
25906;DHT22;13713;52.552;13.204;2022-12-18T08:40:20;10.10;56.90
25906;DHT22;13713;52.552;13.204;2022-12-18T08:42:46;10.00;56.90
25906;DHT22;13713;52.552;13.204;2022-12-18T08:45:32;10.10;57.10
25906;DHT22;13713;52.552;13.204;2022-12-18T08:47:59;10.00;57.00
25906;DHT22;13713;52.552;13.204;2022-12-18T08:50:24;10.00;57.00
25906;DHT22;13713;52.552;13.204;2022-12-18T08:52:50;10.00;57.00
25906;DHT22;13713;52.552;13.204;2022-12-18T08:55:16;10.00;56.90
25906;DHT22;13713;52.552;13.204;2022-12-18T08:57:41;10.00;56.90
25906;DHT22;13713;52.552;13.204;2022-12-18T09:00:08;10.00;56.90
25906;DHT22;13713;52.552;13.204;2022-12-18T09:02:33;10.00;56.90
25906;DHT22;13713;52.552;13.204;2022-12-18T09:04:59;10.00;56.80
25906;DHT22;13713;52.552;13.204;2022-12-18T09:07:25;10.00;56.90
25906;DHT22;13713;52.552;13.204;2022-12-18T09:09:50;10.00;56.80
25906;DHT22;13713;52.552;13.204;2022-12-18T09:12:16;10.00;56.80
25906;DHT22;13713;52.552;13.204;2022-12-18T09:14:42;10.00;56.90
25906;DHT22;13713;52.552;13.204;2022-12-18T09:17:07;10.00;56.90
25906;DHT22;13713;52.552;13.204;2022-12-18T09:19:33;10.00;56.80
25906;DHT22;13713;52.552;13.204;2022-12-18T09:21:59;10.00;56.70
25906;DHT22;13713;52.552;13.204;2022-12-18T09:24:24;10.00;56.80
25906;DHT22;13713;52.552;13.204;2022-12-18T09:26:53;10.00;57.40
25906;DHT22;13713;52.552;13.204;2022-12-18T09:29:20;10.00;57.50
25906;DHT22;13713;52.552;13.204;2022-12-18T09:31:46;10.00;56.90
25906;DHT22;13713;52.552;13.204;2022-12-18T09:34:12;10.00;57.00
25906;DHT22;13713;52.552;13.204;2022-12-18T09:36:38;10.00;57.00
25906;DHT22;13713;52.552;13.204;2022-12-18T09:39:04;10.00;57.00
25906;DHT22;13713;52.552;13.204;2022-12-18T09:41:56;10.00;56.90
25906;DHT22;13713;52.552;13.204;2022-12-18T09:44:41;10.00;56.80
25906;DHT22;13713;52.552;13.204;2022-12-18T09:47:34;10.00;56.80
25906;DHT22;13713;52.552;13.204;2022-12-18T09:50:06;10.00;56.80
25906;DHT22;13713;52.552;13.204;2022-12-18T09:52:45;10.00;56.70
25906;DHT22;13713;52.552;13.204;2022-12-18T09:55:22;10.00;56.90
25906;DHT22;13713;52.552;13.204;2022-12-18T09:57:53;10.00;57.00
25906;DHT22;13713;52.552;13.204;2022-12-18T10:00:22;10.00;57.00
25906;DHT22;13713;52.552;13.204;2022-12-18T10:02:50;10.00;56.80
25906;DHT22;13713;52.552;13.204;2022-12-18T10:05:22;10.00;56.90
25906;DHT22;13713;52.552;13.204;2022-12-18T10:08:05;10.00;56.80
25906;DHT22;13713;52.552;13.204;2022-12-18T10:10:53;10.00;56.70
25906;DHT22;13713;52.552;13.204;2022-12-18T10:13:31;10.00;56.80
25906;DHT22;13713;52.552;13.204;2022-12-18T10:16:20;10.00;56.80
25906;DHT22;13713;52.552;13.204;2022-12-18T10:21:24;10.00;56.80
25906;DHT22;13713;52.552;13.204;2022-12-18T10:24:02;10.00;56.80
25906;DHT22;13713;52.552;13.204;2022-12-18T10:26:31;10.00;56.90
25906;DHT22;13713;52.552;13.204;2022-12-18T10:28:59;10.00;56.80
25906;DHT22;13713;52.552;13.204;2022-12-18T10:31:25;9.90;56.70
25906;DHT22;13713;52.552;13.204;2022-12-18T10:33:53;10.00;56.90
25906;DHT22;13713;52.552;13.204;2022-12-18T10:36:20;10.00;56.90
25906;DHT22;13713;52.552;13.204;2022-12-18T10:38:45;10.00;56.90
25906;DHT22;13713;52.552;13.204;2022-12-18T10:43:42;10.00;56.80
25906;DHT22;13713;52.552;13.204;2022-12-18T10:53:57;10.00;56.80
25906;DHT22;13713;52.552;13.204;2022-12-18T10:56:26;10.00;56.80
25906;DHT22;13713;52.552;13.204;2022-12-18T10:59:03;9.90;56.70
25906;DHT22;13713;52.552;13.204;2022-12-18T11:01:47;9.90;56.60
25906;DHT22;13713;52.552;13.204;2022-12-18T11:07:06;9.90;56.60
25906;DHT22;13713;52.552;13.204;2022-12-18T11:09:34;9.90;56.70
25906;DHT22;13713;52.552;13.204;2022-12-18T11:12:02;9.90;56.70
25906;DHT22;13713;52.552;13.204;2022-12-18T11:14:29;9.90;56.70
25906;DHT22;13713;52.552;13.204;2022-12-18T11:16:58;9.90;56.60
25906;DHT22;13713;52.552;13.204;2022-12-18T11:19:35;9.90;56.60
25906;DHT22;13713;52.552;13.204;2022-12-18T11:22:17;9.90;56.60
25906;DHT22;13713;52.552;13.204;2022-12-18T11:24:49;9.90;56.60
25906;DHT22;13713;52.552;13.204;2022-12-18T11:27:18;9.90;56.70
25906;DHT22;13713;52.552;13.204;2022-12-18T11:29:44;9.90;56.70
25906;DHT22;13713;52.552;13.204;2022-12-18T11:32:34;9.90;56.60
25906;DHT22;13713;52.552;13.204;2022-12-18T11:37:32;9.90;56.70
25906;DHT22;13713;52.552;13.204;2022-12-18T11:40:03;9.90;56.60
25906;DHT22;13713;52.552;13.204;2022-12-18T11:47:57;9.90;56.60
25906;DHT22;13713;52.552;13.204;2022-12-18T11:53:12;9.90;56.70
25906;DHT22;13713;52.552;13.204;2022-12-18T12:11:57;9.90;56.70
25906;DHT22;13713;52.552;13.204;2022-12-18T12:17:18;9.90;56.60
25906;DHT22;13713;52.552;13.204;2022-12-18T12:20:02;9.90;56.60
25906;DHT22;13713;52.552;13.204;2022-12-18T12:22:41;9.90;56.60
25906;DHT22;13713;52.552;13.204;2022-12-18T12:28:42;9.90;56.60
25906;DHT22;13713;52.552;13.204;2022-12-18T12:31:33;9.90;56.60
25906;DHT22;13713;52.552;13.204;2022-12-18T12:34:25;9.90;56.60
25906;DHT22;13713;52.552;13.204;2022-12-18T12:39:41;9.90;56.60
25906;DHT22;13713;52.552;13.204;2022-12-18T12:42:34;9.80;56.60
25906;DHT22;13713;52.552;13.204;2022-12-18T12:46:05;9.90;56.70
25906;DHT22;13713;52.552;13.204;2022-12-18T12:53:41;9.90;56.70
25906;DHT22;13713;52.552;13.204;2022-12-18T12:56:10;9.80;56.70
25906;DHT22;13713;52.552;13.204;2022-12-18T12:58:47;9.90;56.80
25906;DHT22;13713;52.552;13.204;2022-12-18T13:01:47;9.90;56.60
25906;DHT22;13713;52.552;13.204;2022-12-18T13:04:21;9.90;56.90
25906;DHT22;13713;52.552;13.204;2022-12-18T13:07:23;9.80;56.70
25906;DHT22;13713;52.552;13.204;2022-12-18T13:15:43;9.80;56.70
25906;DHT22;13713;52.552;13.204;2022-12-18T13:20:36;9.80;56.70
25906;DHT22;13713;52.552;13.204;2022-12-18T13:31:02;9.80;56.70
25906;DHT22;13713;52.552;13.204;2022-12-18T13:38:35;9.80;56.60
25906;DHT22;13713;52.552;13.204;2022-12-18T13:43:33;9.80;56.60
25906;DHT22;13713;52.552;13.204;2022-12-18T13:48:26;9.80;56.70
25906;DHT22;13713;52.552;13.204;2022-12-18T13:51:02;9.80;56.70
25906;DHT22;13713;52.552;13.204;2022-12-18T13:53:39;9.80;56.70
25906;DHT22;13713;52.552;13.204;2022-12-18T13:56:07;9.80;56.70
25906;DHT22;13713;52.552;13.204;2022-12-18T13:58:33;9.80;56.70
25906;DHT22;13713;52.552;13.204;2022-12-18T14:00:58;9.80;56.70
25906;DHT22;13713;52.552;13.204;2022-12-18T14:03:27;9.80;56.70
25906;DHT22;13713;52.552;13.204;2022-12-18T14:06:05;9.80;56.70
25906;DHT22;13713;52.552;13.204;2022-12-18T14:08:39;9.80;56.70
25906;DHT22;13713;52.552;13.204;2022-12-18T14:11:07;9.90;56.80
25906;DHT22;13713;52.552;13.204;2022-12-18T14:13:37;9.80;56.70
25906;DHT22;13713;52.552;13.204;2022-12-18T14:16:05;9.80;56.70
25906;DHT22;13713;52.552;13.204;2022-12-18T14:20:59;9.80;56.70
25906;DHT22;13713;52.552;13.204;2022-12-18T14:23:33;9.80;56.70
25906;DHT22;13713;52.552;13.204;2022-12-18T14:26:01;9.80;56.70
25906;DHT22;13713;52.552;13.204;2022-12-18T14:28:27;9.80;56.70
25906;DHT22;13713;52.552;13.204;2022-12-18T14:30:53;9.80;56.70
25906;DHT22;13713;52.552;13.204;2022-12-18T14:33:27;9.80;56.70
25906;DHT22;13713;52.552;13.204;2022-12-18T14:36:04;9.80;56.70
25906;DHT22;13713;52.552;13.204;2022-12-18T14:38:39;9.80;56.70
25906;DHT22;13713;52.552;13.204;2022-12-18T14:41:13;9.80;56.70
25906;DHT22;13713;52.552;13.204;2022-12-18T14:43:41;9.80;56.80
25906;DHT22;13713;52.552;13.204;2022-12-18T14:46:28;9.80;56.80
25906;DHT22;13713;52.552;13.204;2022-12-18T14:48:54;9.80;56.70
25906;DHT22;13713;52.552;13.204;2022-12-18T14:51:25;9.80;56.70
25906;DHT22;13713;52.552;13.204;2022-12-18T14:54:16;9.70;56.70
25906;DHT22;13713;52.552;13.204;2022-12-18T14:56:45;9.80;56.70
25906;DHT22;13713;52.552;13.204;2022-12-18T14:59:22;9.80;57.30
25906;DHT22;13713;52.552;13.204;2022-12-18T15:04:43;9.80;56.70
25906;DHT22;13713;52.552;13.204;2022-12-18T15:09:39;9.80;56.70
25906;DHT22;13713;52.552;13.204;2022-12-18T15:12:22;9.70;56.50
25906;DHT22;13713;52.552;13.204;2022-12-18T15:14:50;9.70;56.50
25906;DHT22;13713;52.552;13.204;2022-12-18T15:17:23;9.70;56.50
25906;DHT22;13713;52.552;13.204;2022-12-18T15:19:52;9.70;56.60
25906;DHT22;13713;52.552;13.204;2022-12-18T15:22:20;9.70;56.50
25906;DHT22;13713;52.552;13.204;2022-12-18T15:24:47;9.70;56.40
25906;DHT22;13713;52.552;13.204;2022-12-18T15:32:36;9.70;56.40
25906;DHT22;13713;52.552;13.204;2022-12-18T15:37:49;9.70;56.50
25906;DHT22;13713;52.552;13.204;2022-12-18T15:40:16;9.70;56.60
25906;DHT22;13713;52.552;13.204;2022-12-18T15:42:43;9.70;56.60
25906;DHT22;13713;52.552;13.204;2022-12-18T15:45:28;9.70;56.60
25906;DHT22;13713;52.552;13.204;2022-12-18T15:47:54;9.70;56.50
25906;DHT22;13713;52.552;13.204;2022-12-18T15:50:19;9.70;56.50
25906;DHT22;13713;52.552;13.204;2022-12-18T15:52:47;9.70;56.50
25906;DHT22;13713;52.552;13.204;2022-12-18T15:55:15;9.70;56.50
25906;DHT22;13713;52.552;13.204;2022-12-18T15:57:59;9.70;56.50
25906;DHT22;13713;52.552;13.204;2022-12-18T16:00:25;9.70;56.50
25906;DHT22;13713;52.552;13.204;2022-12-18T16:02:51;9.70;56.40
25906;DHT22;13713;52.552;13.204;2022-12-18T16:05:18;9.70;56.50
25906;DHT22;13713;52.552;13.204;2022-12-18T16:07:44;9.70;56.50
25906;DHT22;13713;52.552;13.204;2022-12-18T16:10:11;9.70;56.40
25906;DHT22;13713;52.552;13.204;2022-12-18T16:12:36;9.70;56.50
25906;DHT22;13713;52.552;13.204;2022-12-18T16:15:03;9.70;56.50
25906;DHT22;13713;52.552;13.204;2022-12-18T16:17:29;9.70;56.40
25906;DHT22;13713;52.552;13.204;2022-12-18T16:19:55;9.70;56.40
25906;DHT22;13713;52.552;13.204;2022-12-18T16:22:26;9.70;56.50
25906;DHT22;13713;52.552;13.204;2022-12-18T16:24:52;9.70;56.50
25906;DHT22;13713;52.552;13.204;2022-12-18T16:27:19;9.70;56.50
25906;DHT22;13713;52.552;13.204;2022-12-18T16:29:45;9.70;56.50
25906;DHT22;13713;52.552;13.204;2022-12-18T16:32:17;9.70;56.40
25906;DHT22;13713;52.552;13.204;2022-12-18T16:34:43;9.60;56.40
25906;DHT22;13713;52.552;13.204;2022-12-18T16:37:11;9.70;56.40
25906;DHT22;13713;52.552;13.204;2022-12-18T16:39:38;9.60;56.30
25906;DHT22;13713;52.552;13.204;2022-12-18T16:44:38;9.60;56.30
25906;DHT22;13713;52.552;13.204;2022-12-18T16:47:03;9.60;56.20
25906;DHT22;13713;52.552;13.204;2022-12-18T16:49:30;9.60;56.40
25906;DHT22;13713;52.552;13.204;2022-12-18T16:51:56;9.60;56.30
25906;DHT22;13713;52.552;13.204;2022-12-18T16:54:22;9.60;56.30
25906;DHT22;13713;52.552;13.204;2022-12-18T16:56:47;9.60;56.40
25906;DHT22;13713;52.552;13.204;2022-12-18T16:59:15;9.60;56.40
25906;DHT22;13713;52.552;13.204;2022-12-18T17:01:41;9.70;56.40
25906;DHT22;13713;52.552;13.204;2022-12-18T17:04:07;9.60;56.40
25906;DHT22;13713;52.552;13.204;2022-12-18T17:06:38;9.60;56.30
25906;DHT22;13713;52.552;13.204;2022-12-18T17:09:07;9.60;56.30
25906;DHT22;13713;52.552;13.204;2022-12-18T17:11:34;9.60;56.40
25906;DHT22;13713;52.552;13.204;2022-12-18T17:14:09;9.60;56.40
25906;DHT22;13713;52.552;13.204;2022-12-18T17:16:35;9.60;56.50
25906;DHT22;13713;52.552;13.204;2022-12-18T17:19:01;9.60;56.40
25906;DHT22;13713;52.552;13.204;2022-12-18T17:21:27;9.60;56.40
25906;DHT22;13713;52.552;13.204;2022-12-18T17:23:53;9.60;56.50
25906;DHT22;13713;52.552;13.204;2022-12-18T17:26:18;9.60;56.40
25906;DHT22;13713;52.552;13.204;2022-12-18T17:28:44;9.60;56.40
25906;DHT22;13713;52.552;13.204;2022-12-18T17:31:15;9.60;56.40
25906;DHT22;13713;52.552;13.204;2022-12-18T17:33:42;9.60;56.40
25906;DHT22;13713;52.552;13.204;2022-12-18T17:36:08;9.60;56.50
25906;DHT22;13713;52.552;13.204;2022-12-18T17:38:34;9.60;56.50
25906;DHT22;13713;52.552;13.204;2022-12-18T17:41:01;9.60;56.50
25906;DHT22;13713;52.552;13.204;2022-12-18T17:43:27;9.60;56.40